Nashville, TN

6:10 PM CDT on March 29, 2015 (GMT -0500)
APRSWXNET Nashville TN US | | Change Station
CLOSE
Current Station
Personal Weather Station
Location: Nashville, TN
Elevation: 728 ft
Nearby Weather Stations

Elev 728 ft 36.14 °N, 86.80 °W | Updated 40 minutes ago

Mostly Cloudy
Mostly Cloudy
61 °F
Feels Like 61 °F
N
12
Wind Variable Wind from South
Gusts 21.0 mph

Today
High -- | Low -- °F
--% Chance of Precip.
Yesterday
High -- | Low -- °F
Precip. -- in
6:37 AM 7:06 PM
Waxing Gibbous, 75% visible
Pressure 30.08 in
Visibility 10.0 miles
Clouds Scattered Clouds 4400 ft
Dew Point 35 °F
Humidity 37%
Rainfall in
Snow Depth Not available.
UV 1 out of 12
Pollen 8.50 out of 12
Air Quality Not available.
Flu Activity Not available.
METAR KBNA 292253Z 19017G22KT 10SM SCT044 16/01 A3008 RMK AO2 PK WND 20026/2237 SLP186 T01560006

More Conditions Fewer Conditions

Pressure 30.08 in
Visibility 10.0 miles
Clouds Scattered Clouds 4400 ft
Dew Point 35 °F
Humidity 37%
Rainfall in
Snow Depth Not available.
UV 1 out of 12
Pollen 8.50 out of 12
Air Quality Not available.
Flu Activity Not available.
METAR KBNA 292253Z 19017G22KT 10SM SCT044 16/01 A3008 RMK AO2 PK WND 20026/2237 SLP186 T01560006

More Conditions Fewer Conditions

10-Day Weather Forecast

Almanac

Astronomy

Mar. 29, 2015 Rise Set
Actual Time
Civil Twilight
Nautical Twilight
Astronomical Twilight
Moon
Length of Visible Light
Length of Day
Tomorrow will be .
, % of the Moon is Illuminated

Today's Extremes

State Highs State Lows

Community

WunderPhotos

Upload Photos

1,809,378 photos uploaded!

WunderBlogs® & News

Nearby

Air Quality

  Air Quality AQ Index Pollutant
Not available.

Snow Depth

Station Depth Elevation

Earthquake Activity

City Distance Mag. Time & Date
Minimum magnitude displayed is 2.5.

Coastal Water Temperatures

Place Temperature

Stations

Nearby Weather Stations

Station Location Temp. Windchill Dew Point Humidity Wind Precip. Elev Updated Type